sensor_id;sensor_type;location;lat;lon;timestamp;temperature;humidity
8248;DHT22;4164;49.844;8.830;2024-02-21T00:00:50;8.60;99.90
8248;DHT22;4164;49.844;8.830;2024-02-21T00:03:15;8.60;99.90
8248;DHT22;4164;49.844;8.830;2024-02-21T00:05:41;8.60;99.90
8248;DHT22;4164;49.844;8.830;2024-02-21T00:08:06;8.60;99.90
8248;DHT22;4164;49.844;8.830;2024-02-21T00:10:32;8.50;99.90
8248;DHT22;4164;49.844;8.830;2024-02-21T00:12:58;8.60;99.90
8248;DHT22;4164;49.844;8.830;2024-02-21T00:15:25;8.50;99.90
8248;DHT22;4164;49.844;8.830;2024-02-21T00:17:50;8.50;99.90
8248;DHT22;4164;49.844;8.830;2024-02-21T00:20:16;8.50;99.90
8248;DHT22;4164;49.844;8.830;2024-02-21T00:22:43;8.40;99.90
8248;DHT22;4164;49.844;8.830;2024-02-21T00:25:08;8.40;99.90
8248;DHT22;4164;49.844;8.830;2024-02-21T00:27:36;8.50;99.90
8248;DHT22;4164;49.844;8.830;2024-02-21T00:30:03;8.50;99.90
8248;DHT22;4164;49.844;8.830;2024-02-21T00:32:28;8.50;99.90
8248;DHT22;4164;49.844;8.830;2024-02-21T00:34:54;8.50;99.90
8248;DHT22;4164;49.844;8.830;2024-02-21T00:37:20;8.50;99.90
8248;DHT22;4164;49.844;8.830;2024-02-21T00:39:45;8.50;99.90
8248;DHT22;4164;49.844;8.830;2024-02-21T00:42:11;8.50;99.90
8248;DHT22;4164;49.844;8.830;2024-02-21T00:44:36;8.50;99.90
8248;DHT22;4164;49.844;8.830;2024-02-21T00:47:02;8.50;99.90
8248;DHT22;4164;49.844;8.830;2024-02-21T00:49:27;8.40;99.90
8248;DHT22;4164;49.844;8.830;2024-02-21T00:51:53;8.40;99.90
8248;DHT22;4164;49.844;8.830;2024-02-21T00:54:18;8.40;99.90
8248;DHT22;4164;49.844;8.830;2024-02-21T00:56:44;8.40;99.90
8248;DHT22;4164;49.844;8.830;2024-02-21T00:59:09;8.50;99.90
8248;DHT22;4164;49.844;8.830;2024-02-21T01:01:35;8.40;99.90
8248;DHT22;4164;49.844;8.830;2024-02-21T01:04:00;8.40;99.90
8248;DHT22;4164;49.844;8.830;2024-02-21T01:06:26;8.40;99.90
8248;DHT22;4164;49.844;8.830;2024-02-21T01:08:52;8.40;99.90
8248;DHT22;4164;49.844;8.830;2024-02-21T01:11:17;8.40;99.90
8248;DHT22;4164;49.844;8.830;2024-02-21T01:13:43;8.40;99.90
8248;DHT22;4164;49.844;8.830;2024-02-21T01:16:12;8.40;99.90
8248;DHT22;4164;49.844;8.830;2024-02-21T01:18:37;8.40;99.90
8248;DHT22;4164;49.844;8.830;2024-02-21T01:21:04;8.30;99.90
8248;DHT22;4164;49.844;8.830;2024-02-21T01:23:33;8.30;99.90
8248;DHT22;4164;49.844;8.830;2024-02-21T01:25:58;8.30;99.90
8248;DHT22;4164;49.844;8.830;2024-02-21T01:28:24;8.30;99.90
8248;DHT22;4164;49.844;8.830;2024-02-21T01:30:49;8.30;99.90
8248;DHT22;4164;49.844;8.830;2024-02-21T01:33:15;8.30;99.90
8248;DHT22;4164;49.844;8.830;2024-02-21T01:35:44;8.30;99.90
8248;DHT22;4164;49.844;8.830;2024-02-21T01:38:10;8.30;99.90
8248;DHT22;4164;49.844;8.830;2024-02-21T01:40:36;8.20;99.90
8248;DHT22;4164;49.844;8.830;2024-02-21T01:43:02;8.30;99.90
8248;DHT22;4164;49.844;8.830;2024-02-21T01:45:28;8.20;99.90
8248;DHT22;4164;49.844;8.830;2024-02-21T01:47:54;8.30;99.90
8248;DHT22;4164;49.844;8.830;2024-02-21T01:50:19;8.20;99.90
8248;DHT22;4164;49.844;8.830;2024-02-21T01:52:49;8.20;99.90
8248;DHT22;4164;49.844;8.830;2024-02-21T01:55:16;8.20;99.90
8248;DHT22;4164;49.844;8.830;2024-02-21T01:57:43;8.20;99.90
8248;DHT22;4164;49.844;8.830;2024-02-21T02:00:11;8.30;99.90
8248;DHT22;4164;49.844;8.830;2024-02-21T02:02:38;8.20;99.90
8248;DHT22;4164;49.844;8.830;2024-02-21T02:05:04;8.20;99.90
8248;DHT22;4164;49.844;8.830;2024-02-21T02:07:31;8.20;99.90
8248;DHT22;4164;49.844;8.830;2024-02-21T02:09:57;8.10;99.90
8248;DHT22;4164;49.844;8.830;2024-02-21T02:12:23;8.10;99.90
8248;DHT22;4164;49.844;8.830;2024-02-21T02:15:01;8.10;99.90
8248;DHT22;4164;49.844;8.830;2024-02-21T02:17:30;8.10;99.90
8248;DHT22;4164;49.844;8.830;2024-02-21T02:19:55;8.10;99.90
8248;DHT22;4164;49.844;8.830;2024-02-21T02:22:25;8.10;99.90
8248;DHT22;4164;49.844;8.830;2024-02-21T02:24:53;8.10;99.90
8248;DHT22;4164;49.844;8.830;2024-02-21T02:27:19;8.10;99.90
8248;DHT22;4164;49.844;8.830;2024-02-21T02:29:44;8.10;99.90
8248;DHT22;4164;49.844;8.830;2024-02-21T02:32:10;8.10;99.90
8248;DHT22;4164;49.844;8.830;2024-02-21T02:34:35;8.10;99.90
8248;DHT22;4164;49.844;8.830;2024-02-21T02:37:01;8.10;99.90
8248;DHT22;4164;49.844;8.830;2024-02-21T02:39:26;8.00;99.90
8248;DHT22;4164;49.844;8.830;2024-02-21T02:41:52;8.00;99.90
8248;DHT22;4164;49.844;8.830;2024-02-21T02:44:17;8.00;99.90
8248;DHT22;4164;49.844;8.830;2024-02-21T02:46:43;8.10;99.90
8248;DHT22;4164;49.844;8.830;2024-02-21T02:49:09;8.10;99.90
8248;DHT22;4164;49.844;8.830;2024-02-21T02:51:41;8.10;99.90
8248;DHT22;4164;49.844;8.830;2024-02-21T02:54:07;8.00;99.90
8248;DHT22;4164;49.844;8.830;2024-02-21T02:56:33;8.10;99.90
8248;DHT22;4164;49.844;8.830;2024-02-21T02:58:58;8.20;99.90
8248;DHT22;4164;49.844;8.830;2024-02-21T03:01:24;8.00;99.90
8248;DHT22;4164;49.844;8.830;2024-02-21T03:03:49;8.10;99.90
8248;DHT22;4164;49.844;8.830;2024-02-21T03:06:15;8.20;99.90
8248;DHT22;4164;49.844;8.830;2024-02-21T03:08:40;8.10;99.90
8248;DHT22;4164;49.844;8.830;2024-02-21T03:11:06;8.10;99.90
8248;DHT22;4164;49.844;8.830;2024-02-21T03:13:32;8.00;99.90
8248;DHT22;4164;49.844;8.830;2024-02-21T03:15:57;8.00;99.90
8248;DHT22;4164;49.844;8.830;2024-02-21T03:18:23;7.90;99.90
8248;DHT22;4164;49.844;8.830;2024-02-21T03:20:48;7.90;99.90
8248;DHT22;4164;49.844;8.830;2024-02-21T03:23:14;7.80;99.90
8248;DHT22;4164;49.844;8.830;2024-02-21T03:25:42;7.80;99.90
8248;DHT22;4164;49.844;8.830;2024-02-21T03:28:07;7.90;99.90
8248;DHT22;4164;49.844;8.830;2024-02-21T03:30:39;7.80;99.90
8248;DHT22;4164;49.844;8.830;2024-02-21T03:33:04;7.70;99.90
8248;DHT22;4164;49.844;8.830;2024-02-21T03:35:33;7.60;99.90
8248;DHT22;4164;49.844;8.830;2024-02-21T03:37:59;7.60;99.90
8248;DHT22;4164;49.844;8.830;2024-02-21T03:40:24;7.50;1.00
8248;DHT22;4164;49.844;8.830;2024-02-21T03:42:50;7.50;1.00
8248;DHT22;4164;49.844;8.830;2024-02-21T03:45:18;7.50;1.00
8248;DHT22;4164;49.844;8.830;2024-02-21T03:47:44;7.30;1.00
8248;DHT22;4164;49.844;8.830;2024-02-21T03:50:09;7.30;1.00
8248;DHT22;4164;49.844;8.830;2024-02-21T03:52:35;7.20;1.00
8248;DHT22;4164;49.844;8.830;2024-02-21T03:55:00;7.20;1.00
8248;DHT22;4164;49.844;8.830;2024-02-21T03:57:26;7.20;1.00
8248;DHT22;4164;49.844;8.830;2024-02-21T03:59:52;7.20;1.00
8248;DHT22;4164;49.844;8.830;2024-02-21T04:02:17;7.30;1.00
8248;DHT22;4164;49.844;8.830;2024-02-21T04:04:46;7.30;1.00
8248;DHT22;4164;49.844;8.830;2024-02-21T04:07:14;7.20;1.00
8248;DHT22;4164;49.844;8.830;2024-02-21T04:09:39;7.10;1.00
8248;DHT22;4164;49.844;8.830;2024-02-21T04:12:05;7.20;1.00
8248;DHT22;4164;49.844;8.830;2024-02-21T04:14:31;7.20;1.00
8248;DHT22;4164;49.844;8.830;2024-02-21T04:16:57;7.30;1.00
8248;DHT22;4164;49.844;8.830;2024-02-21T04:19:22;7.30;1.00
8248;DHT22;4164;49.844;8.830;2024-02-21T04:21:48;7.40;1.00
8248;DHT22;4164;49.844;8.830;2024-02-21T04:24:13;7.40;1.00
8248;DHT22;4164;49.844;8.830;2024-02-21T04:26:39;7.40;1.00
8248;DHT22;4164;49.844;8.830;2024-02-21T04:29:04;7.40;1.00
8248;DHT22;4164;49.844;8.830;2024-02-21T04:31:32;7.40;1.00
8248;DHT22;4164;49.844;8.830;2024-02-21T04:33:57;7.40;1.00
8248;DHT22;4164;49.844;8.830;2024-02-21T04:36:23;7.40;1.00
8248;DHT22;4164;49.844;8.830;2024-02-21T04:38:49;7.40;1.00
8248;DHT22;4164;49.844;8.830;2024-02-21T04:41:15;7.30;1.00
8248;DHT22;4164;49.844;8.830;2024-02-21T04:43:41;7.30;1.00
8248;DHT22;4164;49.844;8.830;2024-02-21T04:46:06;7.30;1.00
8248;DHT22;4164;49.844;8.830;2024-02-21T04:48:32;7.40;1.00
8248;DHT22;4164;49.844;8.830;2024-02-21T04:50:58;7.30;1.00
8248;DHT22;4164;49.844;8.830;2024-02-21T04:53:23;7.20;1.00
8248;DHT22;4164;49.844;8.830;2024-02-21T04:55:49;7.10;1.00
8248;DHT22;4164;49.844;8.830;2024-02-21T04:58:14;7.10;1.00
8248;DHT22;4164;49.844;8.830;2024-02-21T05:00:43;7.00;1.00
8248;DHT22;4164;49.844;8.830;2024-02-21T05:03:08;7.00;1.00
8248;DHT22;4164;49.844;8.830;2024-02-21T05:05:34;7.10;1.00
8248;DHT22;4164;49.844;8.830;2024-02-21T05:07:59;7.00;1.00
8248;DHT22;4164;49.844;8.830;2024-02-21T05:10:25;7.00;1.00
8248;DHT22;4164;49.844;8.830;2024-02-21T05:12:51;7.00;1.00
8248;DHT22;4164;49.844;8.830;2024-02-21T05:15:16;7.00;1.00
8248;DHT22;4164;49.844;8.830;2024-02-21T05:17:42;7.00;1.00
8248;DHT22;4164;49.844;8.830;2024-02-21T05:20:09;7.00;1.00
8248;DHT22;4164;49.844;8.830;2024-02-21T05:22:34;7.00;1.00
8248;DHT22;4164;49.844;8.830;2024-02-21T05:25:00;7.10;1.00
8248;DHT22;4164;49.844;8.830;2024-02-21T05:27:25;7.10;1.00
8248;DHT22;4164;49.844;8.830;2024-02-21T05:29:53;7.10;1.00
8248;DHT22;4164;49.844;8.830;2024-02-21T05:32:18;7.00;1.00
8248;DHT22;4164;49.844;8.830;2024-02-21T05:34:44;7.00;1.00
8248;DHT22;4164;49.844;8.830;2024-02-21T05:37:09;7.00;1.00
8248;DHT22;4164;49.844;8.830;2024-02-21T05:39:35;7.00;1.00
8248;DHT22;4164;49.844;8.830;2024-02-21T05:42:00;7.00;1.00
8248;DHT22;4164;49.844;8.830;2024-02-21T05:44:26;7.10;1.00
8248;DHT22;4164;49.844;8.830;2024-02-21T05:46:52;7.00;1.00
8248;DHT22;4164;49.844;8.830;2024-02-21T05:49:17;7.00;1.00
8248;DHT22;4164;49.844;8.830;2024-02-21T05:51:43;7.00;1.00
8248;DHT22;4164;49.844;8.830;2024-02-21T05:54:08;7.10;1.00
8248;DHT22;4164;49.844;8.830;2024-02-21T05:56:34;7.10;1.00
8248;DHT22;4164;49.844;8.830;2024-02-21T05:59:00;7.20;1.00
8248;DHT22;4164;49.844;8.830;2024-02-21T06:01:25;7.20;1.00
8248;DHT22;4164;49.844;8.830;2024-02-21T06:03:51;7.20;1.00
8248;DHT22;4164;49.844;8.830;2024-02-21T06:06:16;7.10;1.00
8248;DHT22;4164;49.844;8.830;2024-02-21T06:08:42;7.20;1.00
8248;DHT22;4164;49.844;8.830;2024-02-21T06:11:07;7.10;1.00
8248;DHT22;4164;49.844;8.830;2024-02-21T06:13:33;7.10;1.00
8248;DHT22;4164;49.844;8.830;2024-02-21T06:15:58;7.10;1.00
8248;DHT22;4164;49.844;8.830;2024-02-21T06:18:24;7.10;1.00
8248;DHT22;4164;49.844;8.830;2024-02-21T06:20:49;7.10;1.00
8248;DHT22;4164;49.844;8.830;2024-02-21T06:23:16;7.10;1.00
8248;DHT22;4164;49.844;8.830;2024-02-21T06:25:42;7.20;1.00
8248;DHT22;4164;49.844;8.830;2024-02-21T06:28:08;7.20;1.00
8248;DHT22;4164;49.844;8.830;2024-02-21T06:30:34;7.20;1.00
8248;DHT22;4164;49.844;8.830;2024-02-21T06:32:59;7.20;1.00
8248;DHT22;4164;49.844;8.830;2024-02-21T06:35:26;7.10;1.00
8248;DHT22;4164;49.844;8.830;2024-02-21T06:37:52;7.10;1.00
8248;DHT22;4164;49.844;8.830;2024-02-21T06:40:20;7.10;1.00
8248;DHT22;4164;49.844;8.830;2024-02-21T06:42:46;7.00;1.00
8248;DHT22;4164;49.844;8.830;2024-02-21T06:45:12;7.00;1.00
8248;DHT22;4164;49.844;8.830;2024-02-21T06:47:37;7.00;1.00
8248;DHT22;4164;49.844;8.830;2024-02-21T06:50:03;7.00;1.00
8248;DHT22;4164;49.844;8.830;2024-02-21T06:52:29;7.00;1.00
8248;DHT22;4164;49.844;8.830;2024-02-21T06:54:56;7.00;1.00
8248;DHT22;4164;49.844;8.830;2024-02-21T06:57:22;7.00;1.00
8248;DHT22;4164;49.844;8.830;2024-02-21T06:59:50;7.00;1.00
8248;DHT22;4164;49.844;8.830;2024-02-21T07:02:15;6.80;1.00
8248;DHT22;4164;49.844;8.830;2024-02-21T07:04:41;7.10;1.00
8248;DHT22;4164;49.844;8.830;2024-02-21T07:07:07;7.20;1.00
8248;DHT22;4164;49.844;8.830;2024-02-21T07:09:32;7.10;1.00
8248;DHT22;4164;49.844;8.830;2024-02-21T07:11:58;7.20;1.00
8248;DHT22;4164;49.844;8.830;2024-02-21T07:14:24;7.20;1.00
8248;DHT22;4164;49.844;8.830;2024-02-21T07:16:50;7.20;1.00
8248;DHT22;4164;49.844;8.830;2024-02-21T07:19:16;7.30;1.00
8248;DHT22;4164;49.844;8.830;2024-02-21T07:21:42;7.40;1.00
8248;DHT22;4164;49.844;8.830;2024-02-21T07:24:08;7.50;1.00
8248;DHT22;4164;49.844;8.830;2024-02-21T07:26:34;7.60;1.00
8248;DHT22;4164;49.844;8.830;2024-02-21T07:28:59;7.60;1.00
8248;DHT22;4164;49.844;8.830;2024-02-21T07:31:25;7.60;1.00
8248;DHT22;4164;49.844;8.830;2024-02-21T07:33:51;7.60;1.00
8248;DHT22;4164;49.844;8.830;2024-02-21T07:36:30;7.60;1.00
8248;DHT22;4164;49.844;8.830;2024-02-21T07:38:56;7.80;1.00
8248;DHT22;4164;49.844;8.830;2024-02-21T07:41:21;7.80;1.00
8248;DHT22;4164;49.844;8.830;2024-02-21T07:43:47;8.00;1.00
8248;DHT22;4164;49.844;8.830;2024-02-21T07:46:14;8.00;1.00
8248;DHT22;4164;49.844;8.830;2024-02-21T07:48:39;8.10;1.00
8248;DHT22;4164;49.844;8.830;2024-02-21T07:51:05;8.20;1.00
8248;DHT22;4164;49.844;8.830;2024-02-21T07:53:30;8.20;1.00
8248;DHT22;4164;49.844;8.830;2024-02-21T07:55:56;8.30;1.00
8248;DHT22;4164;49.844;8.830;2024-02-21T07:58:21;8.30;1.00
8248;DHT22;4164;49.844;8.830;2024-02-21T08:00:47;8.50;99.90
8248;DHT22;4164;49.844;8.830;2024-02-21T08:03:13;8.50;99.90
8248;DHT22;4164;49.844;8.830;2024-02-21T08:05:40;8.50;99.90
8248;DHT22;4164;49.844;8.830;2024-02-21T08:08:06;8.70;99.90
8248;DHT22;4164;49.844;8.830;2024-02-21T08:10:33;8.90;99.90
8248;DHT22;4164;49.844;8.830;2024-02-21T08:12:59;9.00;99.90
8248;DHT22;4164;49.844;8.830;2024-02-21T08:15:24;8.70;99.90
8248;DHT22;4164;49.844;8.830;2024-02-21T08:17:53;8.80;99.90
8248;DHT22;4164;49.844;8.830;2024-02-21T08:20:24;8.90;99.90
8248;DHT22;4164;49.844;8.830;2024-02-21T08:22:49;8.70;99.90
8248;DHT22;4164;49.844;8.830;2024-02-21T08:25:15;8.80;99.90
8248;DHT22;4164;49.844;8.830;2024-02-21T08:27:40;8.90;99.90
8248;DHT22;4164;49.844;8.830;2024-02-21T08:30:06;8.70;99.90
8248;DHT22;4164;49.844;8.830;2024-02-21T08:32:33;8.70;99.90
8248;DHT22;4164;49.844;8.830;2024-02-21T08:35:01;8.80;99.90
8248;DHT22;4164;49.844;8.830;2024-02-21T08:37:27;8.90;99.90
8248;DHT22;4164;49.844;8.830;2024-02-21T08:39:53;8.90;99.90
8248;DHT22;4164;49.844;8.830;2024-02-21T08:42:18;8.90;99.90
8248;DHT22;4164;49.844;8.830;2024-02-21T08:44:44;9.00;99.90
8248;DHT22;4164;49.844;8.830;2024-02-21T08:47:09;8.90;99.90
8248;DHT22;4164;49.844;8.830;2024-02-21T08:49:35;8.70;99.90
8248;DHT22;4164;49.844;8.830;2024-02-21T08:52:02;8.70;99.90
8248;DHT22;4164;49.844;8.830;2024-02-21T08:54:28;8.60;99.90
8248;DHT22;4164;49.844;8.830;2024-02-21T08:56:54;8.80;99.90
8248;DHT22;4164;49.844;8.830;2024-02-21T08:59:20;8.90;99.90
8248;DHT22;4164;49.844;8.830;2024-02-21T09:01:46;8.90;99.90
8248;DHT22;4164;49.844;8.830;2024-02-21T09:04:14;8.90;99.90
8248;DHT22;4164;49.844;8.830;2024-02-21T09:06:40;9.10;99.90
8248;DHT22;4164;49.844;8.830;2024-02-21T09:09:08;9.10;99.90
8248;DHT22;4164;49.844;8.830;2024-02-21T09:11:35;9.00;99.90
8248;DHT22;4164;49.844;8.830;2024-02-21T09:14:01;9.10;99.90
8248;DHT22;4164;49.844;8.830;2024-02-21T09:16:27;9.40;99.90
8248;DHT22;4164;49.844;8.830;2024-02-21T09:18:52;9.50;99.90
8248;DHT22;4164;49.844;8.830;2024-02-21T09:21:18;9.00;99.90
8248;DHT22;4164;49.844;8.830;2024-02-21T09:23:44;9.30;99.90
8248;DHT22;4164;49.844;8.830;2024-02-21T09:26:10;9.60;99.90
8248;DHT22;4164;49.844;8.830;2024-02-21T09:28:42;9.70;99.90
8248;DHT22;4164;49.844;8.830;2024-02-21T09:31:08;9.70;99.90
8248;DHT22;4164;49.844;8.830;2024-02-21T09:33:34;9.70;99.90
8248;DHT22;4164;49.844;8.830;2024-02-21T09:35:59;9.80;99.90
8248;DHT22;4164;49.844;8.830;2024-02-21T09:38:25;9.60;99.90
8248;DHT22;4164;49.844;8.830;2024-02-21T09:41:08;9.70;99.90
8248;DHT22;4164;49.844;8.830;2024-02-21T09:43:38;9.50;99.90
8248;DHT22;4164;49.844;8.830;2024-02-21T09:46:05;9.80;99.90
8248;DHT22;4164;49.844;8.830;2024-02-21T09:51:21;10.00;99.90
8248;DHT22;4164;49.844;8.830;2024-02-21T09:53:48;10.00;99.90
8248;DHT22;4164;49.844;8.830;2024-02-21T09:56:15;10.00;99.90
8248;DHT22;4164;49.844;8.830;2024-02-21T09:58:40;9.90;99.90
8248;DHT22;4164;49.844;8.830;2024-02-21T10:01:06;9.90;99.90
8248;DHT22;4164;49.844;8.830;2024-02-21T10:03:32;10.10;99.90
8248;DHT22;4164;49.844;8.830;2024-02-21T10:05:59;10.40;99.90
8248;DHT22;4164;49.844;8.830;2024-02-21T10:08:26;10.90;99.90
8248;DHT22;4164;49.844;8.830;2024-02-21T10:10:52;10.70;99.90
8248;DHT22;4164;49.844;8.830;2024-02-21T10:13:26;10.80;99.90
8248;DHT22;4164;49.844;8.830;2024-02-21T10:16:06;10.60;99.90
8248;DHT22;4164;49.844;8.830;2024-02-21T10:18:36;10.40;99.90
8248;DHT22;4164;49.844;8.830;2024-02-21T10:21:02;10.80;99.90
8248;DHT22;4164;49.844;8.830;2024-02-21T10:23:42;11.20;99.90
8248;DHT22;4164;49.844;8.830;2024-02-21T10:26:08;11.50;99.90
8248;DHT22;4164;49.844;8.830;2024-02-21T10:28:33;11.50;99.90
8248;DHT22;4164;49.844;8.830;2024-02-21T10:30:59;11.20;99.90
8248;DHT22;4164;49.844;8.830;2024-02-21T10:33:24;11.80;99.90
8248;DHT22;4164;49.844;8.830;2024-02-21T10:35:53;12.00;99.90
8248;DHT22;4164;49.844;8.830;2024-02-21T10:38:18;11.50;99.90
8248;DHT22;4164;49.844;8.830;2024-02-21T10:40:46;11.80;99.90
8248;DHT22;4164;49.844;8.830;2024-02-21T10:43:12;11.70;99.90
8248;DHT22;4164;49.844;8.830;2024-02-21T10:45:39;11.40;99.90
8248;DHT22;4164;49.844;8.830;2024-02-21T10:48:14;10.90;99.90
8248;DHT22;4164;49.844;8.830;2024-02-21T10:51:02;11.20;99.90
8248;DHT22;4164;49.844;8.830;2024-02-21T10:56:34;11.80;99.90
8248;DHT22;4164;49.844;8.830;2024-02-21T10:59:04;12.40;99.90
8248;DHT22;4164;49.844;8.830;2024-02-21T11:01:29;12.70;99.90
8248;DHT22;4164;49.844;8.830;2024-02-21T11:03:59;12.70;99.90
8248;DHT22;4164;49.844;8.830;2024-02-21T11:06:26;12.60;99.90
8248;DHT22;4164;49.844;8.830;2024-02-21T11:09:03;12.20;99.90
8248;DHT22;4164;49.844;8.830;2024-02-21T11:11:41;11.80;99.90
8248;DHT22;4164;49.844;8.830;2024-02-21T11:14:11;12.40;99.90
8248;DHT22;4164;49.844;8.830;2024-02-21T11:16:40;12.60;99.90
8248;DHT22;4164;49.844;8.830;2024-02-21T11:19:18;12.50;99.90
8248;DHT22;4164;49.844;8.830;2024-02-21T11:21:44;12.50;99.90
8248;DHT22;4164;49.844;8.830;2024-02-21T11:24:10;12.20;99.90
8248;DHT22;4164;49.844;8.830;2024-02-21T11:26:37;12.40;99.90
8248;DHT22;4164;49.844;8.830;2024-02-21T11:29:03;12.40;99.90
8248;DHT22;4164;49.844;8.830;2024-02-21T11:31:46;12.80;99.90
8248;DHT22;4164;49.844;8.830;2024-02-21T11:34:12;13.70;99.90
8248;DHT22;4164;49.844;8.830;2024-02-21T11:36:51;13.00;99.90
8248;DHT22;4164;49.844;8.830;2024-02-21T11:39:25;12.50;99.90
8248;DHT22;4164;49.844;8.830;2024-02-21T11:42:05;12.10;99.90
8248;DHT22;4164;49.844;8.830;2024-02-21T11:44:32;12.30;99.90
8248;DHT22;4164;49.844;8.830;2024-02-21T11:46:58;12.10;99.90
8248;DHT22;4164;49.844;8.830;2024-02-21T11:49:28;11.50;99.90
8248;DHT22;4164;49.844;8.830;2024-02-21T11:52:00;11.80;99.90
8248;DHT22;4164;49.844;8.830;2024-02-21T11:54:32;11.60;99.90
8248;DHT22;4164;49.844;8.830;2024-02-21T11:56:58;11.60;99.90
8248;DHT22;4164;49.844;8.830;2024-02-21T11:59:24;11.70;99.90
8248;DHT22;4164;49.844;8.830;2024-02-21T12:01:49;11.80;99.90
8248;DHT22;4164;49.844;8.830;2024-02-21T12:04:17;11.80;99.90
8248;DHT22;4164;49.844;8.830;2024-02-21T12:06:45;11.40;99.90
8248;DHT22;4164;49.844;8.830;2024-02-21T12:09:14;11.50;99.90
8248;DHT22;4164;49.844;8.830;2024-02-21T12:11:41;11.60;99.90
8248;DHT22;4164;49.844;8.830;2024-02-21T12:14:07;11.50;99.90
8248;DHT22;4164;49.844;8.830;2024-02-21T12:16:35;11.30;99.90
8248;DHT22;4164;49.844;8.830;2024-02-21T12:19:04;11.30;99.90
8248;DHT22;4164;49.844;8.830;2024-02-21T12:21:31;11.40;99.90
8248;DHT22;4164;49.844;8.830;2024-02-21T12:23:58;11.60;99.90
8248;DHT22;4164;49.844;8.830;2024-02-21T12:26:24;11.80;99.90
8248;DHT22;4164;49.844;8.830;2024-02-21T12:28:53;11.80;99.90
8248;DHT22;4164;49.844;8.830;2024-02-21T12:31:19;12.00;99.90
8248;DHT22;4164;49.844;8.830;2024-02-21T12:33:49;12.50;99.90
8248;DHT22;4164;49.844;8.830;2024-02-21T12:36:14;12.80;99.90
8248;DHT22;4164;49.844;8.830;2024-02-21T12:38:40;12.80;99.90
8248;DHT22;4164;49.844;8.830;2024-02-21T12:41:05;13.00;99.90
8248;DHT22;4164;49.844;8.830;2024-02-21T12:43:35;12.90;99.90
8248;DHT22;4164;49.844;8.830;2024-02-21T12:46:01;12.90;99.90
8248;DHT22;4164;49.844;8.830;2024-02-21T12:48:26;13.20;99.90
8248;DHT22;4164;49.844;8.830;2024-02-21T12:50:52;13.30;99.90
8248;DHT22;4164;49.844;8.830;2024-02-21T12:53:18;13.40;99.90
8248;DHT22;4164;49.844;8.830;2024-02-21T12:55:47;13.30;99.90
8248;DHT22;4164;49.844;8.830;2024-02-21T12:58:14;12.70;99.90
8248;DHT22;4164;49.844;8.830;2024-02-21T13:00:39;12.30;99.90
8248;DHT22;4164;49.844;8.830;2024-02-21T13:03:05;12.50;99.90
8248;DHT22;4164;49.844;8.830;2024-02-21T13:05:31;12.40;99.90
8248;DHT22;4164;49.844;8.830;2024-02-21T13:07:58;12.20;99.90
8248;DHT22;4164;49.844;8.830;2024-02-21T13:10:23;12.00;99.90
8248;DHT22;4164;49.844;8.830;2024-02-21T13:12:49;11.80;99.90
8248;DHT22;4164;49.844;8.830;2024-02-21T13:15:15;11.80;99.90
8248;DHT22;4164;49.844;8.830;2024-02-21T13:17:41;11.90;99.90
8248;DHT22;4164;49.844;8.830;2024-02-21T13:20:07;11.90;99.90
8248;DHT22;4164;49.844;8.830;2024-02-21T13:22:34;11.80;99.90
8248;DHT22;4164;49.844;8.830;2024-02-21T13:25:06;11.60;99.90
8248;DHT22;4164;49.844;8.830;2024-02-21T13:27:35;11.60;99.90
8248;DHT22;4164;49.844;8.830;2024-02-21T13:30:01;11.50;99.90
8248;DHT22;4164;49.844;8.830;2024-02-21T13:32:31;11.40;99.90
8248;DHT22;4164;49.844;8.830;2024-02-21T13:34:57;11.40;99.90
8248;DHT22;4164;49.844;8.830;2024-02-21T13:37:25;11.30;99.90
8248;DHT22;4164;49.844;8.830;2024-02-21T13:39:52;11.40;99.90
8248;DHT22;4164;49.844;8.830;2024-02-21T13:42:18;11.20;99.90
8248;DHT22;4164;49.844;8.830;2024-02-21T13:44:44;11.20;99.90
8248;DHT22;4164;49.844;8.830;2024-02-21T13:47:11;11.20;99.90
8248;DHT22;4164;49.844;8.830;2024-02-21T13:49:41;11.30;99.90
8248;DHT22;4164;49.844;8.830;2024-02-21T13:52:07;11.50;99.90
8248;DHT22;4164;49.844;8.830;2024-02-21T13:54:34;11.60;99.90
8248;DHT22;4164;49.844;8.830;2024-02-21T13:57:00;11.50;99.90
8248;DHT22;4164;49.844;8.830;2024-02-21T13:59:27;11.50;99.90
8248;DHT22;4164;49.844;8.830;2024-02-21T14:01:53;11.50;99.90
8248;DHT22;4164;49.844;8.830;2024-02-21T14:04:18;11.50;99.90
8248;DHT22;4164;49.844;8.830;2024-02-21T14:06:45;11.70;99.90
8248;DHT22;4164;49.844;8.830;2024-02-21T14:09:11;11.60;99.90
8248;DHT22;4164;49.844;8.830;2024-02-21T14:11:40;11.60;99.90
8248;DHT22;4164;49.844;8.830;2024-02-21T14:14:09;11.70;99.90
8248;DHT22;4164;49.844;8.830;2024-02-21T14:16:35;11.90;99.90
8248;DHT22;4164;49.844;8.830;2024-02-21T14:19:01;12.10;99.90
8248;DHT22;4164;49.844;8.830;2024-02-21T14:21:27;12.30;99.90
8248;DHT22;4164;49.844;8.830;2024-02-21T14:23:54;12.40;99.90
8248;DHT22;4164;49.844;8.830;2024-02-21T14:26:19;12.30;99.90
8248;DHT22;4164;49.844;8.830;2024-02-21T14:28:47;12.30;99.90
8248;DHT22;4164;49.844;8.830;2024-02-21T14:31:13;12.00;99.90
8248;DHT22;4164;49.844;8.830;2024-02-21T14:33:39;12.00;99.90
8248;DHT22;4164;49.844;8.830;2024-02-21T14:36:04;12.10;99.90
8248;DHT22;4164;49.844;8.830;2024-02-21T14:38:30;11.90;99.90
8248;DHT22;4164;49.844;8.830;2024-02-21T14:40:56;11.70;99.90
8248;DHT22;4164;49.844;8.830;2024-02-21T14:43:22;11.80;99.90
8248;DHT22;4164;49.844;8.830;2024-02-21T14:45:48;11.80;99.90
8248;DHT22;4164;49.844;8.830;2024-02-21T14:48:14;11.80;99.90
8248;DHT22;4164;49.844;8.830;2024-02-21T14:50:40;11.60;99.90
8248;DHT22;4164;49.844;8.830;2024-02-21T14:53:06;11.60;99.90
8248;DHT22;4164;49.844;8.830;2024-02-21T14:55:33;11.70;99.90
8248;DHT22;4164;49.844;8.830;2024-02-21T14:57:59;11.80;99.90
8248;DHT22;4164;49.844;8.830;2024-02-21T15:00:24;12.00;99.90
8248;DHT22;4164;49.844;8.830;2024-02-21T15:02:56;12.10;99.90
8248;DHT22;4164;49.844;8.830;2024-02-21T15:05:22;12.00;99.90
8248;DHT22;4164;49.844;8.830;2024-02-21T15:07:47;11.70;99.90
8248;DHT22;4164;49.844;8.830;2024-02-21T15:10:13;11.50;99.90
8248;DHT22;4164;49.844;8.830;2024-02-21T15:12:39;11.60;99.90
8248;DHT22;4164;49.844;8.830;2024-02-21T15:15:05;11.50;99.90
8248;DHT22;4164;49.844;8.830;2024-02-21T15:17:31;11.50;99.90
8248;DHT22;4164;49.844;8.830;2024-02-21T15:19:57;11.40;99.90
8248;DHT22;4164;49.844;8.830;2024-02-21T15:22:24;11.60;99.90
8248;DHT22;4164;49.844;8.830;2024-02-21T15:24:49;11.70;99.90
8248;DHT22;4164;49.844;8.830;2024-02-21T15:27:15;11.80;99.90
8248;DHT22;4164;49.844;8.830;2024-02-21T15:29:41;11.80;99.90
8248;DHT22;4164;49.844;8.830;2024-02-21T15:32:07;11.60;99.90
8248;DHT22;4164;49.844;8.830;2024-02-21T15:34:32;11.40;99.90
8248;DHT22;4164;49.844;8.830;2024-02-21T15:37:01;11.30;99.90
8248;DHT22;4164;49.844;8.830;2024-02-21T15:39:26;11.30;99.90
8248;DHT22;4164;49.844;8.830;2024-02-21T15:41:53;11.20;99.90
8248;DHT22;4164;49.844;8.830;2024-02-21T15:44:19;11.20;99.90
8248;DHT22;4164;49.844;8.830;2024-02-21T15:46:49;11.10;99.90
8248;DHT22;4164;49.844;8.830;2024-02-21T15:49:16;11.10;99.90
8248;DHT22;4164;49.844;8.830;2024-02-21T15:51:44;11.20;99.90
8248;DHT22;4164;49.844;8.830;2024-02-21T15:54:10;11.20;99.90
8248;DHT22;4164;49.844;8.830;2024-02-21T15:56:35;11.20;99.90
8248;DHT22;4164;49.844;8.830;2024-02-21T15:59:01;11.10;99.90
8248;DHT22;4164;49.844;8.830;2024-02-21T16:01:27;11.10;99.90
8248;DHT22;4164;49.844;8.830;2024-02-21T16:03:53;11.10;99.90
8248;DHT22;4164;49.844;8.830;2024-02-21T16:06:21;11.10;99.90
8248;DHT22;4164;49.844;8.830;2024-02-21T16:08:47;11.20;99.90
8248;DHT22;4164;49.844;8.830;2024-02-21T16:11:18;11.20;99.90
8248;DHT22;4164;49.844;8.830;2024-02-21T16:13:43;11.10;99.90
8248;DHT22;4164;49.844;8.830;2024-02-21T16:16:11;11.20;99.90
8248;DHT22;4164;49.844;8.830;2024-02-21T16:18:37;11.20;99.90